Aeroporto :
LOGIN :

Iscrizione | Disclaimer

   EN    FR    IT 

 










Sommario :    VFR   VFR Marginale   IFR   IFR Intensivo   IFR Molto Intensivo
Visibilità : 
Base nubi : 
>= 8 km
>= 3000ft
5 / 8 km
1000 / 3000 ft
1500m / 5 km
500 / 1000 ft
800 / 1500m
200 / 500 ft
< 800m
< 200 ft
Simboli :   Temporali  Nebbia  Neve Forte  Precipitazioni Forti  Vento > 20 kt
SIGMETs :   Varie  Temporali  Ghiacco  Turbolenza  Onda orograficha  Ceneri Vulcaniche






- Altitudine del aeroporto : 70 ft
- Codice IATA : LEI


LEAM - Almeria

ULTIMO METAR :
  • 171430Z 21010KT 9999 FEW015 17/13 Q1025

METARs OBSOLETI :
  • 171400Z 21010KT 9999 FEW015 16/13 Q1025
  • 171330Z 21010KT 9999 FEW015 17/13 Q1025
  • 171300Z 21009KT 190V250 9999 FEW015 17/12 Q1026
  • 171230Z 20007KT 170V240 9999 FEW015 16/13 Q1026
  • 171200Z 21007KT 9999 SCT015 16/12 Q1027

TAF TAF LEAM
Valido dal 17 a 15 ore il 18 a 15 ore UTC


171400Z 1715/1815 21010KT 9999 FEW015 TX18/1715Z TN12/1806Z
BECMG 1719/1721 34005KT
BECMG 1805/1807 05015KT



MetMap, La meteo Aeronautica in un colpo d'occhio ! - Copyright ORBIFLY Dicembre 2007 - Disclaimer

ORBIFLY MET'MAP TEAM :

Programmazione e sviluppo : Alexandra Zaïnal
Concezione : Baudouin d'Aumeries
Aiuto per la programmazione : Marc-Olivier Méhu
Supporto tecnico e logistico : Manuel Goepfert
Aiuto per la traduzione : Arnaldo La Scala

Contatto : metmap@orbifly.com




FONTI E CREDITI :

   NOAA